sensor_id;sensor_type;location;lat;lon;timestamp;P1;durP1;ratioP1;P2;durP2;ratioP2
79574;SDS011;69044;48.198;11.468;2023-07-13T00:04:48;5.20;;;2.65;;
79574;SDS011;69044;48.198;11.468;2023-07-13T00:07:16;4.65;;;2.47;;
79574;SDS011;69044;48.198;11.468;2023-07-13T00:09:47;3.65;;;2.40;;
79574;SDS011;69044;48.198;11.468;2023-07-13T00:12:22;3.00;;;2.13;;
79574;SDS011;69044;48.198;11.468;2023-07-13T00:14:50;3.90;;;2.30;;
79574;SDS011;69044;48.198;11.468;2023-07-13T00:17:18;4.60;;;2.78;;
79574;SDS011;69044;48.198;11.468;2023-07-13T00:19:45;3.50;;;2.33;;
79574;SDS011;69044;48.198;11.468;2023-07-13T00:22:12;3.70;;;2.50;;
79574;SDS011;69044;48.198;11.468;2023-07-13T00:24:40;3.58;;;2.30;;
79574;SDS011;69044;48.198;11.468;2023-07-13T00:27:09;4.00;;;2.47;;
79574;SDS011;69044;48.198;11.468;2023-07-13T00:29:37;4.70;;;2.67;;
79574;SDS011;69044;48.198;11.468;2023-07-13T00:32:05;3.58;;;2.40;;
79574;SDS011;69044;48.198;11.468;2023-07-13T00:34:36;4.55;;;2.38;;
79574;SDS011;69044;48.198;11.468;2023-07-13T00:37:03;4.57;;;2.33;;
79574;SDS011;69044;48.198;11.468;2023-07-13T00:39:33;3.30;;;2.30;;
79574;SDS011;69044;48.198;11.468;2023-07-13T00:42:02;3.15;;;2.30;;
79574;SDS011;69044;48.198;11.468;2023-07-13T00:44:31;4.65;;;2.45;;
79574;SDS011;69044;48.198;11.468;2023-07-13T00:46:59;5.47;;;2.78;;
79574;SDS011;69044;48.198;11.468;2023-07-13T00:49:27;3.45;;;2.30;;
79574;SDS011;69044;48.198;11.468;2023-07-13T00:51:57;3.45;;;2.47;;
79574;SDS011;69044;48.198;11.468;2023-07-13T00:54:28;4.10;;;2.30;;
79574;SDS011;69044;48.198;11.468;2023-07-13T00:56:59;3.42;;;2.33;;
79574;SDS011;69044;48.198;11.468;2023-07-13T00:59:29;4.28;;;2.25;;
79574;SDS011;69044;48.198;11.468;2023-07-13T01:01:58;4.32;;;2.65;;
79574;SDS011;69044;48.198;11.468;2023-07-13T01:04:25;4.30;;;2.47;;
79574;SDS011;69044;48.198;11.468;2023-07-13T01:06:52;3.90;;;2.38;;
79574;SDS011;69044;48.198;11.468;2023-07-13T01:09:20;3.47;;;2.22;;
79574;SDS011;69044;48.198;11.468;2023-07-13T01:11:49;3.17;;;2.20;;
79574;SDS011;69044;48.198;11.468;2023-07-13T01:14:17;5.90;;;2.72;;
79574;SDS011;69044;48.198;11.468;2023-07-13T01:16:44;5.03;;;2.30;;
79574;SDS011;69044;48.198;11.468;2023-07-13T01:19:18;3.80;;;2.70;;
79574;SDS011;69044;48.198;11.468;2023-07-13T01:21:57;3.78;;;2.40;;
79574;SDS011;69044;48.198;11.468;2023-07-13T01:24:26;4.63;;;2.30;;
79574;SDS011;69044;48.198;11.468;2023-07-13T01:26:54;8.68;;;2.28;;
79574;SDS011;69044;48.198;11.468;2023-07-13T01:29:21;8.07;;;2.50;;
79574;SDS011;69044;48.198;11.468;2023-07-13T01:31:49;5.10;;;2.28;;
79574;SDS011;69044;48.198;11.468;2023-07-13T01:34:17;5.82;;;2.80;;
79574;SDS011;69044;48.198;11.468;2023-07-13T01:36:44;3.70;;;2.40;;
79574;SDS011;69044;48.198;11.468;2023-07-13T01:39:13;4.70;;;2.60;;
79574;SDS011;69044;48.198;11.468;2023-07-13T01:41:40;5.57;;;2.78;;
79574;SDS011;69044;48.198;11.468;2023-07-13T01:44:07;3.70;;;2.47;;
79574;SDS011;69044;48.198;11.468;2023-07-13T01:46:35;4.00;;;2.45;;
79574;SDS011;69044;48.198;11.468;2023-07-13T01:49:04;3.97;;;2.63;;
79574;SDS011;69044;48.198;11.468;2023-07-13T01:51:31;4.55;;;2.50;;
79574;SDS011;69044;48.198;11.468;2023-07-13T01:53:58;3.45;;;2.30;;
79574;SDS011;69044;48.198;11.468;2023-07-13T01:56:27;4.43;;;2.63;;
79574;SDS011;69044;48.198;11.468;2023-07-13T01:58:54;7.20;;;2.92;;
79574;SDS011;69044;48.198;11.468;2023-07-13T02:01:22;3.58;;;2.28;;
79574;SDS011;69044;48.198;11.468;2023-07-13T02:03:50;3.60;;;2.45;;
79574;SDS011;69044;48.198;11.468;2023-07-13T02:06:17;4.15;;;2.63;;
79574;SDS011;69044;48.198;11.468;2023-07-13T02:08:44;3.75;;;2.30;;
79574;SDS011;69044;48.198;11.468;2023-07-13T02:11:12;3.88;;;2.30;;
79574;SDS011;69044;48.198;11.468;2023-07-13T02:13:41;4.57;;;2.47;;
79574;SDS011;69044;48.198;11.468;2023-07-13T02:16:08;3.85;;;2.75;;
79574;SDS011;69044;48.198;11.468;2023-07-13T02:18:36;4.93;;;2.42;;
79574;SDS011;69044;48.198;11.468;2023-07-13T02:21:03;3.30;;;2.30;;
79574;SDS011;69044;48.198;11.468;2023-07-13T02:23:30;5.15;;;2.63;;
79574;SDS011;69044;48.198;11.468;2023-07-13T02:25:58;3.80;;;2.42;;
79574;SDS011;69044;48.198;11.468;2023-07-13T02:28:28;3.92;;;2.38;;
79574;SDS011;69044;48.198;11.468;2023-07-13T02:31:03;4.07;;;2.63;;
79574;SDS011;69044;48.198;11.468;2023-07-13T02:33:31;3.95;;;2.50;;
79574;SDS011;69044;48.198;11.468;2023-07-13T02:35:58;4.57;;;2.53;;
79574;SDS011;69044;48.198;11.468;2023-07-13T02:38:25;4.15;;;2.92;;
79574;SDS011;69044;48.198;11.468;2023-07-13T02:40:53;5.22;;;3.00;;
79574;SDS011;69044;48.198;11.468;2023-07-13T02:43:20;4.28;;;2.90;;
79574;SDS011;69044;48.198;11.468;2023-07-13T02:45:48;4.13;;;2.72;;
79574;SDS011;69044;48.198;11.468;2023-07-13T02:48:16;5.35;;;2.78;;
79574;SDS011;69044;48.198;11.468;2023-07-13T02:50:44;9.02;;;3.10;;
79574;SDS011;69044;48.198;11.468;2023-07-13T02:53:11;4.68;;;2.95;;
79574;SDS011;69044;48.198;11.468;2023-07-13T02:55:39;4.90;;;2.90;;
79574;SDS011;69044;48.198;11.468;2023-07-13T02:58:07;5.40;;;2.90;;
79574;SDS011;69044;48.198;11.468;2023-07-13T03:00:34;5.25;;;2.85;;
79574;SDS011;69044;48.198;11.468;2023-07-13T03:03:01;7.18;;;3.22;;
79574;SDS011;69044;48.198;11.468;2023-07-13T03:07:58;8.65;;;3.08;;
79574;SDS011;69044;48.198;11.468;2023-07-13T03:10:25;4.55;;;2.70;;
79574;SDS011;69044;48.198;11.468;2023-07-13T03:12:53;4.50;;;3.00;;
79574;SDS011;69044;48.198;11.468;2023-07-13T03:15:26;4.35;;;2.58;;
79574;SDS011;69044;48.198;11.468;2023-07-13T03:17:55;5.55;;;3.20;;
79574;SDS011;69044;48.198;11.468;2023-07-13T03:20:23;7.65;;;3.10;;
79574;SDS011;69044;48.198;11.468;2023-07-13T03:22:51;6.63;;;2.80;;
79574;SDS011;69044;48.198;11.468;2023-07-13T03:25:19;3.83;;;2.60;;
79574;SDS011;69044;48.198;11.468;2023-07-13T03:27:48;4.07;;;2.42;;
79574;SDS011;69044;48.198;11.468;2023-07-13T03:30:16;4.80;;;2.65;;
79574;SDS011;69044;48.198;11.468;2023-07-13T03:35:11;3.50;;;2.30;;
79574;SDS011;69044;48.198;11.468;2023-07-13T03:37:38;4.35;;;2.53;;
79574;SDS011;69044;48.198;11.468;2023-07-13T03:40:13;4.90;;;2.90;;
79574;SDS011;69044;48.198;11.468;2023-07-13T03:42:43;5.57;;;2.50;;
79574;SDS011;69044;48.198;11.468;2023-07-13T03:45:11;6.53;;;2.65;;
79574;SDS011;69044;48.198;11.468;2023-07-13T03:47:38;5.05;;;2.58;;
79574;SDS011;69044;48.198;11.468;2023-07-13T03:50:06;4.95;;;2.75;;
79574;SDS011;69044;48.198;11.468;2023-07-13T03:52:34;3.78;;;2.70;;
79574;SDS011;69044;48.198;11.468;2023-07-13T03:55:01;4.25;;;2.55;;
79574;SDS011;69044;48.198;11.468;2023-07-13T03:57:33;4.35;;;2.30;;
79574;SDS011;69044;48.198;11.468;2023-07-13T04:00:03;3.97;;;2.40;;
79574;SDS011;69044;48.198;11.468;2023-07-13T04:02:41;3.15;;;2.20;;
79574;SDS011;69044;48.198;11.468;2023-07-13T04:05:09;4.50;;;2.65;;
79574;SDS011;69044;48.198;11.468;2023-07-13T04:07:36;4.60;;;2.30;;
79574;SDS011;69044;48.198;11.468;2023-07-13T04:10:03;4.25;;;2.70;;
79574;SDS011;69044;48.198;11.468;2023-07-13T04:12:32;4.13;;;2.75;;
79574;SDS011;69044;48.198;11.468;2023-07-13T04:14:59;3.78;;;2.20;;
79574;SDS011;69044;48.198;11.468;2023-07-13T04:17:27;4.43;;;2.53;;
79574;SDS011;69044;48.198;11.468;2023-07-13T04:19:54;3.22;;;2.10;;
79574;SDS011;69044;48.198;11.468;2023-07-13T04:22:21;4.35;;;2.10;;
79574;SDS011;69044;48.198;11.468;2023-07-13T04:24:48;3.70;;;2.30;;
79574;SDS011;69044;48.198;11.468;2023-07-13T04:27:16;4.75;;;2.28;;
79574;SDS011;69044;48.198;11.468;2023-07-13T04:29:44;3.15;;;2.17;;
79574;SDS011;69044;48.198;11.468;2023-07-13T04:32:12;3.88;;;2.22;;
79574;SDS011;69044;48.198;11.468;2023-07-13T04:34:39;4.40;;;2.47;;
79574;SDS011;69044;48.198;11.468;2023-07-13T04:37:06;3.95;;;2.55;;
79574;SDS011;69044;48.198;11.468;2023-07-13T04:39:33;3.33;;;2.25;;
79574;SDS011;69044;48.198;11.468;2023-07-13T04:42:00;3.22;;;1.88;;
79574;SDS011;69044;48.198;11.468;2023-07-13T04:44:28;4.07;;;2.38;;
79574;SDS011;69044;48.198;11.468;2023-07-13T04:46:56;5.22;;;2.13;;
79574;SDS011;69044;48.198;11.468;2023-07-13T04:49:24;4.32;;;2.08;;
79574;SDS011;69044;48.198;11.468;2023-07-13T04:51:51;4.03;;;2.40;;
79574;SDS011;69044;48.198;11.468;2023-07-13T04:54:20;5.03;;;2.60;;
79574;SDS011;69044;48.198;11.468;2023-07-13T04:56:48;3.53;;;2.33;;
79574;SDS011;69044;48.198;11.468;2023-07-13T04:59:15;3.95;;;2.60;;
79574;SDS011;69044;48.198;11.468;2023-07-13T05:01:42;4.22;;;2.40;;
79574;SDS011;69044;48.198;11.468;2023-07-13T05:04:11;3.63;;;2.40;;
79574;SDS011;69044;48.198;11.468;2023-07-13T05:06:38;3.78;;;2.40;;
79574;SDS011;69044;48.198;11.468;2023-07-13T05:09:05;4.15;;;2.60;;
79574;SDS011;69044;48.198;11.468;2023-07-13T05:11:33;5.30;;;2.17;;
79574;SDS011;69044;48.198;11.468;2023-07-13T05:14:01;6.05;;;2.50;;
79574;SDS011;69044;48.198;11.468;2023-07-13T05:16:28;3.67;;;2.35;;
79574;SDS011;69044;48.198;11.468;2023-07-13T05:18:55;4.63;;;2.17;;
79574;SDS011;69044;48.198;11.468;2023-07-13T05:21:24;4.68;;;2.15;;
79574;SDS011;69044;48.198;11.468;2023-07-13T05:23:51;4.78;;;2.30;;
79574;SDS011;69044;48.198;11.468;2023-07-13T05:26:18;5.95;;;2.30;;
79574;SDS011;69044;48.198;11.468;2023-07-13T05:28:46;4.88;;;2.50;;
79574;SDS011;69044;48.198;11.468;2023-07-13T05:31:13;3.97;;;2.05;;
79574;SDS011;69044;48.198;11.468;2023-07-13T05:33:41;4.28;;;2.30;;
79574;SDS011;69044;48.198;11.468;2023-07-13T05:36:08;3.28;;;2.30;;
79574;SDS011;69044;48.198;11.468;2023-07-13T05:38:36;4.70;;;2.45;;
79574;SDS011;69044;48.198;11.468;2023-07-13T05:41:04;3.85;;;2.50;;
79574;SDS011;69044;48.198;11.468;2023-07-13T05:43:31;3.53;;;2.40;;
79574;SDS011;69044;48.198;11.468;2023-07-13T05:45:58;6.03;;;3.05;;
79574;SDS011;69044;48.198;11.468;2023-07-13T05:48:25;7.72;;;3.72;;
79574;SDS011;69044;48.198;11.468;2023-07-13T05:50:53;5.30;;;2.50;;
79574;SDS011;69044;48.198;11.468;2023-07-13T05:53:20;3.88;;;2.50;;
79574;SDS011;69044;48.198;11.468;2023-07-13T05:55:49;4.03;;;2.20;;
79574;SDS011;69044;48.198;11.468;2023-07-13T05:58:19;4.00;;;2.42;;
79574;SDS011;69044;48.198;11.468;2023-07-13T06:00:46;4.90;;;2.22;;
79574;SDS011;69044;48.198;11.468;2023-07-13T06:03:14;5.38;;;2.50;;
79574;SDS011;69044;48.198;11.468;2023-07-13T06:05:41;4.57;;;2.50;;
79574;SDS011;69044;48.198;11.468;2023-07-13T06:08:09;5.35;;;2.40;;
79574;SDS011;69044;48.198;11.468;2023-07-13T06:10:36;6.00;;;2.85;;
79574;SDS011;69044;48.198;11.468;2023-07-13T06:13:05;5.80;;;2.65;;
79574;SDS011;69044;48.198;11.468;2023-07-13T06:15:32;5.93;;;2.50;;
79574;SDS011;69044;48.198;11.468;2023-07-13T06:18:02;3.63;;;2.38;;
79574;SDS011;69044;48.198;11.468;2023-07-13T06:20:29;3.72;;;2.45;;
79574;SDS011;69044;48.198;11.468;2023-07-13T06:22:57;5.47;;;2.58;;
79574;SDS011;69044;48.198;11.468;2023-07-13T06:25:24;5.55;;;2.40;;
79574;SDS011;69044;48.198;11.468;2023-07-13T06:27:52;4.28;;;2.58;;
79574;SDS011;69044;48.198;11.468;2023-07-13T06:30:21;4.30;;;2.40;;
79574;SDS011;69044;48.198;11.468;2023-07-13T06:32:49;7.00;;;2.40;;
79574;SDS011;69044;48.198;11.468;2023-07-13T06:35:16;5.10;;;3.22;;
79574;SDS011;69044;48.198;11.468;2023-07-13T06:37:43;4.10;;;2.58;;
79574;SDS011;69044;48.198;11.468;2023-07-13T06:40:11;5.40;;;2.50;;
79574;SDS011;69044;48.198;11.468;2023-07-13T06:42:38;3.78;;;2.08;;
79574;SDS011;69044;48.198;11.468;2023-07-13T06:45:06;4.10;;;2.75;;
79574;SDS011;69044;48.198;11.468;2023-07-13T06:47:35;3.03;;;2.25;;
79574;SDS011;69044;48.198;11.468;2023-07-13T06:50:02;3.83;;;2.38;;
79574;SDS011;69044;48.198;11.468;2023-07-13T06:52:30;6.22;;;2.38;;
79574;SDS011;69044;48.198;11.468;2023-07-13T06:54:57;3.40;;;2.25;;
79574;SDS011;69044;48.198;11.468;2023-07-13T06:57:24;3.53;;;2.20;;
79574;SDS011;69044;48.198;11.468;2023-07-13T06:59:52;4.18;;;2.33;;
79574;SDS011;69044;48.198;11.468;2023-07-13T07:02:19;5.88;;;2.35;;
79574;SDS011;69044;48.198;11.468;2023-07-13T07:04:48;3.22;;;2.20;;
79574;SDS011;69044;48.198;11.468;2023-07-13T07:07:15;4.43;;;2.30;;
79574;SDS011;69044;48.198;11.468;2023-07-13T07:09:42;3.97;;;2.30;;
79574;SDS011;69044;48.198;11.468;2023-07-13T07:12:10;4.05;;;2.20;;
79574;SDS011;69044;48.198;11.468;2023-07-13T07:14:37;4.68;;;2.40;;
79574;SDS011;69044;48.198;11.468;2023-07-13T07:17:06;4.90;;;2.17;;
79574;SDS011;69044;48.198;11.468;2023-07-13T07:19:34;5.13;;;2.30;;
79574;SDS011;69044;48.198;11.468;2023-07-13T07:22:03;3.97;;;2.25;;
79574;SDS011;69044;48.198;11.468;2023-07-13T07:24:31;5.95;;;2.17;;
79574;SDS011;69044;48.198;11.468;2023-07-13T07:26:58;3.28;;;2.17;;
79574;SDS011;69044;48.198;11.468;2023-07-13T07:29:26;3.63;;;2.15;;
79574;SDS011;69044;48.198;11.468;2023-07-13T07:31:53;4.47;;;2.55;;
79574;SDS011;69044;48.198;11.468;2023-07-13T07:34:21;3.13;;;2.30;;
79574;SDS011;69044;48.198;11.468;2023-07-13T07:36:48;3.03;;;2.10;;
79574;SDS011;69044;48.198;11.468;2023-07-13T07:39:17;3.10;;;2.10;;
79574;SDS011;69044;48.198;11.468;2023-07-13T07:41:44;5.50;;;2.28;;
79574;SDS011;69044;48.198;11.468;2023-07-13T07:44:12;7.47;;;2.40;;
79574;SDS011;69044;48.198;11.468;2023-07-13T07:46:39;5.57;;;2.30;;
79574;SDS011;69044;48.198;11.468;2023-07-13T07:49:07;3.40;;;2.10;;
79574;SDS011;69044;48.198;11.468;2023-07-13T07:51:35;4.30;;;1.80;;
79574;SDS011;69044;48.198;11.468;2023-07-13T07:54:02;4.85;;;2.20;;
79574;SDS011;69044;48.198;11.468;2023-07-13T07:56:32;5.50;;;2.17;;
79574;SDS011;69044;48.198;11.468;2023-07-13T07:59:00;4.57;;;2.20;;
79574;SDS011;69044;48.198;11.468;2023-07-13T08:01:27;3.85;;;1.77;;
79574;SDS011;69044;48.198;11.468;2023-07-13T08:03:55;3.65;;;2.10;;
79574;SDS011;69044;48.198;11.468;2023-07-13T08:06:23;3.65;;;1.95;;
79574;SDS011;69044;48.198;11.468;2023-07-13T08:11:19;4.60;;;2.00;;
79574;SDS011;69044;48.198;11.468;2023-07-13T08:13:50;3.67;;;2.22;;
79574;SDS011;69044;48.198;11.468;2023-07-13T08:16:18;3.30;;;1.90;;
79574;SDS011;69044;48.198;11.468;2023-07-13T08:18:46;4.07;;;2.20;;
79574;SDS011;69044;48.198;11.468;2023-07-13T08:21:14;2.58;;;1.70;;
79574;SDS011;69044;48.198;11.468;2023-07-13T08:23:41;3.50;;;1.90;;
79574;SDS011;69044;48.198;11.468;2023-07-13T08:26:09;2.95;;;1.63;;
79574;SDS011;69044;48.198;11.468;2023-07-13T08:28:36;5.78;;;2.00;;
79574;SDS011;69044;48.198;11.468;2023-07-13T08:31:06;5.40;;;2.22;;
79574;SDS011;69044;48.198;11.468;2023-07-13T08:33:34;3.35;;;1.90;;
79574;SDS011;69044;48.198;11.468;2023-07-13T08:36:02;2.75;;;1.77;;
79574;SDS011;69044;48.198;11.468;2023-07-13T08:38:30;3.38;;;2.10;;
79574;SDS011;69044;48.198;11.468;2023-07-13T08:40:58;4.90;;;1.95;;
79574;SDS011;69044;48.198;11.468;2023-07-13T08:43:26;6.35;;;1.70;;
79574;SDS011;69044;48.198;11.468;2023-07-13T08:45:57;2.70;;;1.73;;
79574;SDS011;69044;48.198;11.468;2023-07-13T08:48:32;3.72;;;1.98;;
79574;SDS011;69044;48.198;11.468;2023-07-13T08:51:02;3.45;;;1.80;;
79574;SDS011;69044;48.198;11.468;2023-07-13T08:53:36;3.70;;;1.98;;
79574;SDS011;69044;48.198;11.468;2023-07-13T08:56:08;3.40;;;1.80;;
79574;SDS011;69044;48.198;11.468;2023-07-13T08:58:38;3.13;;;1.90;;
79574;SDS011;69044;48.198;11.468;2023-07-13T09:01:14;3.30;;;1.80;;
79574;SDS011;69044;48.198;11.468;2023-07-13T09:03:49;3.72;;;1.90;;
79574;SDS011;69044;48.198;11.468;2023-07-13T09:06:27;5.57;;;2.13;;
79574;SDS011;69044;48.198;11.468;2023-07-13T09:08:59;4.55;;;2.05;;
79574;SDS011;69044;48.198;11.468;2023-07-13T09:11:31;3.17;;;1.92;;
79574;SDS011;69044;48.198;11.468;2023-07-13T09:14:06;3.17;;;2.00;;
79574;SDS011;69044;48.198;11.468;2023-07-13T09:16:48;3.33;;;2.10;;
79574;SDS011;69044;48.198;11.468;2023-07-13T09:19:20;3.55;;;2.08;;
79574;SDS011;69044;48.198;11.468;2023-07-13T09:21:52;5.15;;;2.10;;
79574;SDS011;69044;48.198;11.468;2023-07-13T09:24:26;5.13;;;2.05;;
79574;SDS011;69044;48.198;11.468;2023-07-13T09:26:56;3.65;;;2.10;;
79574;SDS011;69044;48.198;11.468;2023-07-13T09:31:54;3.35;;;1.73;;
79574;SDS011;69044;48.198;11.468;2023-07-13T09:34:28;3.28;;;1.90;;
79574;SDS011;69044;48.198;11.468;2023-07-13T09:36:56;5.45;;;2.10;;
79574;SDS011;69044;48.198;11.468;2023-07-13T09:39:24;3.78;;;2.28;;
79574;SDS011;69044;48.198;11.468;2023-07-13T09:41:54;5.88;;;1.90;;
79574;SDS011;69044;48.198;11.468;2023-07-13T09:44:28;3.63;;;1.90;;
79574;SDS011;69044;48.198;11.468;2023-07-13T09:46:57;3.67;;;2.00;;
79574;SDS011;69044;48.198;11.468;2023-07-13T09:49:27;6.47;;;2.08;;
79574;SDS011;69044;48.198;11.468;2023-07-13T09:51:57;4.78;;;2.45;;
79574;SDS011;69044;48.198;11.468;2023-07-13T09:54:26;3.60;;;1.70;;
79574;SDS011;69044;48.198;11.468;2023-07-13T09:56:54;6.28;;;2.28;;
79574;SDS011;69044;48.198;11.468;2023-07-13T09:59:48;4.03;;;2.17;;
79574;SDS011;69044;48.198;11.468;2023-07-13T10:02:26;5.47;;;2.20;;
79574;SDS011;69044;48.198;11.468;2023-07-13T10:04:57;4.30;;;1.77;;
79574;SDS011;69044;48.198;11.468;2023-07-13T10:07:25;6.32;;;2.10;;
79574;SDS011;69044;48.198;11.468;2023-07-13T10:09:54;3.00;;;1.95;;
79574;SDS011;69044;48.198;11.468;2023-07-13T10:12:22;4.05;;;2.10;;
79574;SDS011;69044;48.198;11.468;2023-07-13T10:14:51;4.55;;;2.17;;
79574;SDS011;69044;48.198;11.468;2023-07-13T10:17:24;4.07;;;2.08;;
79574;SDS011;69044;48.198;11.468;2023-07-13T10:19:58;3.58;;;1.90;;
79574;SDS011;69044;48.198;11.468;2023-07-13T10:22:33;3.72;;;2.05;;
79574;SDS011;69044;48.198;11.468;2023-07-13T10:27:41;2.95;;;1.80;;
79574;SDS011;69044;48.198;11.468;2023-07-13T10:32:43;3.10;;;1.77;;
79574;SDS011;69044;48.198;11.468;2023-07-13T10:35:14;4.10;;;2.00;;
79574;SDS011;69044;48.198;11.468;2023-07-13T10:37:47;5.18;;;1.77;;
79574;SDS011;69044;48.198;11.468;2023-07-13T10:40:19;4.65;;;1.80;;
79574;SDS011;69044;48.198;11.468;2023-07-13T10:43:09;2.70;;;1.85;;
79574;SDS011;69044;48.198;11.468;2023-07-13T10:45:41;3.03;;;1.98;;
79574;SDS011;69044;48.198;11.468;2023-07-13T10:48:11;4.50;;;2.10;;
79574;SDS011;69044;48.198;11.468;2023-07-13T10:50:44;3.28;;;2.05;;
79574;SDS011;69044;48.198;11.468;2023-07-13T10:53:20;4.63;;;2.00;;
79574;SDS011;69044;48.198;11.468;2023-07-13T10:55:56;3.63;;;1.90;;
79574;SDS011;69044;48.198;11.468;2023-07-13T10:58:31;4.05;;;2.03;;
79574;SDS011;69044;48.198;11.468;2023-07-13T11:01:03;4.13;;;2.28;;
79574;SDS011;69044;48.198;11.468;2023-07-13T11:03:34;3.17;;;2.00;;
79574;SDS011;69044;48.198;11.468;2023-07-13T11:06:07;3.47;;;2.00;;
79574;SDS011;69044;48.198;11.468;2023-07-13T11:08:36;3.55;;;2.00;;
79574;SDS011;69044;48.198;11.468;2023-07-13T11:11:31;2.78;;;2.10;;
79574;SDS011;69044;48.198;11.468;2023-07-13T11:14:01;3.80;;;1.90;;
79574;SDS011;69044;48.198;11.468;2023-07-13T11:16:34;3.58;;;1.90;;
79574;SDS011;69044;48.198;11.468;2023-07-13T11:22:22;4.63;;;1.85;;
79574;SDS011;69044;48.198;11.468;2023-07-13T11:24:52;3.08;;;1.90;;
79574;SDS011;69044;48.198;11.468;2023-07-13T11:27:31;4.25;;;2.10;;
79574;SDS011;69044;48.198;11.468;2023-07-13T11:30:14;2.70;;;1.83;;
79574;SDS011;69044;48.198;11.468;2023-07-13T11:32:50;4.20;;;2.00;;
79574;SDS011;69044;48.198;11.468;2023-07-13T11:35:21;3.28;;;1.88;;
79574;SDS011;69044;48.198;11.468;2023-07-13T11:37:52;5.30;;;1.92;;
79574;SDS011;69044;48.198;11.468;2023-07-13T11:40:20;4.13;;;1.80;;
79574;SDS011;69044;48.198;11.468;2023-07-13T11:42:49;4.70;;;2.00;;
79574;SDS011;69044;48.198;11.468;2023-07-13T11:45:19;4.72;;;1.80;;
79574;SDS011;69044;48.198;11.468;2023-07-13T11:47:49;3.47;;;2.00;;
79574;SDS011;69044;48.198;11.468;2023-07-13T11:50:18;3.75;;;1.90;;
79574;SDS011;69044;48.198;11.468;2023-07-13T11:52:46;3.05;;;1.80;;
79574;SDS011;69044;48.198;11.468;2023-07-13T11:55:16;3.75;;;1.67;;
79574;SDS011;69044;48.198;11.468;2023-07-13T11:57:45;3.08;;;1.70;;
79574;SDS011;69044;48.198;11.468;2023-07-13T12:00:14;2.72;;;1.88;;
79574;SDS011;69044;48.198;11.468;2023-07-13T12:02:44;4.97;;;1.60;;
79574;SDS011;69044;48.198;11.468;2023-07-13T12:05:13;3.90;;;1.80;;
79574;SDS011;69044;48.198;11.468;2023-07-13T12:07:41;3.97;;;1.80;;
79574;SDS011;69044;48.198;11.468;2023-07-13T12:10:15;5.57;;;1.92;;
79574;SDS011;69044;48.198;11.468;2023-07-13T12:12:47;3.47;;;1.80;;
79574;SDS011;69044;48.198;11.468;2023-07-13T12:15:14;3.17;;;1.70;;
79574;SDS011;69044;48.198;11.468;2023-07-13T12:17:42;5.32;;;1.67;;
79574;SDS011;69044;48.198;11.468;2023-07-13T12:20:17;3.47;;;1.67;;
79574;SDS011;69044;48.198;11.468;2023-07-13T12:22:47;2.95;;;1.90;;
79574;SDS011;69044;48.198;11.468;2023-07-13T12:25:15;2.67;;;1.70;;
79574;SDS011;69044;48.198;11.468;2023-07-13T12:27:47;5.65;;;1.70;;
79574;SDS011;69044;48.198;11.468;2023-07-13T12:30:23;3.50;;;1.88;;
79574;SDS011;69044;48.198;11.468;2023-07-13T12:32:56;4.00;;;1.92;;
79574;SDS011;69044;48.198;11.468;2023-07-13T12:35:24;3.75;;;1.80;;
79574;SDS011;69044;48.198;11.468;2023-07-13T12:37:52;3.60;;;1.73;;
79574;SDS011;69044;48.198;11.468;2023-07-13T12:40:20;3.88;;;1.70;;
79574;SDS011;69044;48.198;11.468;2023-07-13T12:42:50;2.75;;;1.70;;
79574;SDS011;69044;48.198;11.468;2023-07-13T12:45:19;2.95;;;1.70;;
79574;SDS011;69044;48.198;11.468;2023-07-13T12:47:49;2.88;;;1.80;;
79574;SDS011;69044;48.198;11.468;2023-07-13T12:50:18;3.67;;;1.70;;
79574;SDS011;69044;48.198;11.468;2023-07-13T12:52:50;2.42;;;1.60;;
79574;SDS011;69044;48.198;11.468;2023-07-13T12:55:19;3.13;;;1.60;;
79574;SDS011;69044;48.198;11.468;2023-07-13T12:57:49;3.63;;;1.33;;
79574;SDS011;69044;48.198;11.468;2023-07-13T13:00:22;2.70;;;1.60;;
79574;SDS011;69044;48.198;11.468;2023-07-13T13:02:51;3.38;;;1.50;;
79574;SDS011;69044;48.198;11.468;2023-07-13T13:05:19;4.20;;;1.70;;
79574;SDS011;69044;48.198;11.468;2023-07-13T13:07:49;3.67;;;1.70;;
79574;SDS011;69044;48.198;11.468;2023-07-13T13:10:17;2.88;;;1.80;;
79574;SDS011;69044;48.198;11.468;2023-07-13T13:12:44;5.18;;;1.83;;
79574;SDS011;69044;48.198;11.468;2023-07-13T13:15:13;3.42;;;1.73;;
79574;SDS011;69044;48.198;11.468;2023-07-13T13:17:42;3.75;;;1.90;;
79574;SDS011;69044;48.198;11.468;2023-07-13T13:20:13;3.58;;;2.28;;
79574;SDS011;69044;48.198;11.468;2023-07-13T13:22:42;2.25;;;1.58;;
79574;SDS011;69044;48.198;11.468;2023-07-13T13:25:09;4.47;;;1.70;;
79574;SDS011;69044;48.198;11.468;2023-07-13T13:27:37;2.97;;;1.70;;
79574;SDS011;69044;48.198;11.468;2023-07-13T13:30:09;2.05;;;1.50;;
79574;SDS011;69044;48.198;11.468;2023-07-13T13:32:40;2.40;;;1.50;;
79574;SDS011;69044;48.198;11.468;2023-07-13T13:35:11;2.50;;;1.60;;
79574;SDS011;69044;48.198;11.468;2023-07-13T13:37:39;2.78;;;1.70;;
79574;SDS011;69044;48.198;11.468;2023-07-13T13:40:13;2.22;;;1.48;;
79574;SDS011;69044;48.198;11.468;2023-07-13T13:42:42;3.38;;;1.70;;
79574;SDS011;69044;48.198;11.468;2023-07-13T13:45:09;5.93;;;3.30;;
79574;SDS011;69044;48.198;11.468;2023-07-13T13:47:39;3.80;;;2.33;;
79574;SDS011;69044;48.198;11.468;2023-07-13T13:50:13;3.47;;;1.70;;
79574;SDS011;69044;48.198;11.468;2023-07-13T13:52:42;2.67;;;1.65;;
79574;SDS011;69044;48.198;11.468;2023-07-13T13:55:13;3.53;;;1.80;;
79574;SDS011;69044;48.198;11.468;2023-07-13T13:57:41;2.35;;;1.63;;
79574;SDS011;69044;48.198;11.468;2023-07-13T14:00:08;3.58;;;1.63;;
79574;SDS011;69044;48.198;11.468;2023-07-13T14:02:41;2.85;;;1.70;;
79574;SDS011;69044;48.198;11.468;2023-07-13T14:05:13;2.90;;;1.88;;
79574;SDS011;69044;48.198;11.468;2023-07-13T14:07:41;4.10;;;2.03;;
79574;SDS011;69044;48.198;11.468;2023-07-13T14:10:11;3.08;;;1.90;;
79574;SDS011;69044;48.198;11.468;2023-07-13T14:12:41;3.03;;;1.75;;
79574;SDS011;69044;48.198;11.468;2023-07-13T14:15:13;3.83;;;1.90;;
79574;SDS011;69044;48.198;11.468;2023-07-13T14:17:43;3.67;;;1.75;;
79574;SDS011;69044;48.198;11.468;2023-07-13T14:20:11;3.63;;;1.80;;
79574;SDS011;69044;48.198;11.468;2023-07-13T14:22:39;3.42;;;1.80;;
79574;SDS011;69044;48.198;11.468;2023-07-13T14:25:10;3.85;;;1.73;;
79574;SDS011;69044;48.198;11.468;2023-07-13T14:27:38;2.90;;;1.70;;
79574;SDS011;69044;48.198;11.468;2023-07-13T14:30:08;2.33;;;1.60;;
79574;SDS011;69044;48.198;11.468;2023-07-13T14:32:40;2.88;;;1.73;;
79574;SDS011;69044;48.198;11.468;2023-07-13T14:35:10;2.67;;;1.80;;
79574;SDS011;69044;48.198;11.468;2023-07-13T14:37:38;2.40;;;1.70;;
79574;SDS011;69044;48.198;11.468;2023-07-13T14:40:12;3.38;;;1.83;;
79574;SDS011;69044;48.198;11.468;2023-07-13T14:42:39;2.33;;;1.63;;
79574;SDS011;69044;48.198;11.468;2023-07-13T14:45:11;3.92;;;2.00;;
79574;SDS011;69044;48.198;11.468;2023-07-13T14:47:40;4.65;;;1.92;;
79574;SDS011;69044;48.198;11.468;2023-07-13T14:50:13;2.85;;;1.60;;
79574;SDS011;69044;48.198;11.468;2023-07-13T14:52:42;3.60;;;1.88;;
79574;SDS011;69044;48.198;11.468;2023-07-13T14:55:10;2.60;;;1.70;;
79574;SDS011;69044;48.198;11.468;2023-07-13T14:57:38;3.53;;;1.92;;
79574;SDS011;69044;48.198;11.468;2023-07-13T15:00:09;2.90;;;1.60;;
79574;SDS011;69044;48.198;11.468;2023-07-13T15:02:41;2.58;;;1.70;;
79574;SDS011;69044;48.198;11.468;2023-07-13T15:05:14;5.72;;;3.03;;
79574;SDS011;69044;48.198;11.468;2023-07-13T15:07:42;3.13;;;1.80;;